In Rescue
 
Open Full Screen Window  High Contrast Mode
Wind Gusting 00 knots
05
July 23, 2019 1:31 AM EDT
Weather Information
Wind Direction
  280 °
Wind Speed
  05 kt (6 mph)
Wind Gust
  00 kt (0 mph)
Altimeter
30.02 in
Visibility
10 SM
Temperature
15° C
59° F
Dewpoint
09° C
48° F
Humidity
68%
Sky Condition
Clear
VFR

METAR KPZQ 230531Z AUTO 28005KT 10SM CLR 15/09 A3002 RMK AO2 T01460090

FAA Disclaimer: The data displayed is for advisory purposes only and is not to be used for flight planning or operations.